Terminal Aerodrome Forecast
Issued by NWS

Home | Current Version | Previous Version | Text Only | Print | Product List | Glossary On
Versions: 1 2 3 4 5 6 7 8 9 10 11 12 13 14 15 16 17 18 19 20 21
048
FTUS43 KFGF 050307 AAA
TAFBJI
TAF AMD
KBJI 050307Z 0503/0524 26010KT P6SM OVC007
      TEMPO 0504/0506 4SM -SN
     FM050600 25007KT P6SM BKN003
     FM051100 17004KT P6SM BKN003
     FM051700 12007KT P6SM BKN010
     FM051900 12007KT P6SM BKN008
     FM052100 12007KT P6SM OVC003=

USA.gov is the U.S. government's official web portal to all federal, state and local government web resources and services.